Terminal Aerodrome Forecast
Issued by NWS

Home | Current Version | Previous Version | Text Only | Print | Product List | Glossary On
Versions: 1 2 3 4 5 6 7 8 9 10 11 12 13 14
000
FTUS42 KMLB 100500
TAFISM
TAF
KISM 100539Z 1006/1106 14004KT P6SM SCT190
     FM101400 VRB04KT P6SM FEW025 SCT200
     FM102000 12009KT P6SM VCTS SCT035CB SCT090 BKN250
     FM110000 15006KT P6SM VCSH SCT090 BKN150 OVC250
      AMD NOT SKED 1006/1011=

USA.gov is the U.S. government's official web portal to all federal, state and local government web resources and services.